sensor_id;sensor_type;location;lat;lon;timestamp;pressure;altitude;pressure_sealevel;temperature;humidity
3096;BME280;1558;42.700;23.360;2023-05-18T00:01:50;94814.81;;;11.78;100.00
3096;BME280;1558;42.700;23.360;2023-05-18T00:04:19;94822.56;;;11.79;100.00
3096;BME280;1558;42.700;23.360;2023-05-18T00:06:49;94822.25;;;11.81;100.00
3096;BME280;1558;42.700;23.360;2023-05-18T00:09:22;94814.66;;;11.71;100.00
3096;BME280;1558;42.700;23.360;2023-05-18T00:11:52;94821.88;;;11.67;100.00
3096;BME280;1558;42.700;23.360;2023-05-18T00:14:20;94824.56;;;11.67;100.00
3096;BME280;1558;42.700;23.360;2023-05-18T00:16:48;94821.78;;;11.63;100.00
3096;BME280;1558;42.700;23.360;2023-05-18T00:19:20;94825.94;;;11.61;100.00
3096;BME280;1558;42.700;23.360;2023-05-18T00:21:51;94819.69;;;11.56;100.00
3096;BME280;1558;42.700;23.360;2023-05-18T00:24:21;94820.31;;;11.50;100.00
3096;BME280;1558;42.700;23.360;2023-05-18T00:26:49;94828.31;;;11.46;100.00
3096;BME280;1558;42.700;23.360;2023-05-18T00:29:19;94826.03;;;11.48;100.00
3096;BME280;1558;42.700;23.360;2023-05-18T00:31:47;94827.44;;;11.42;100.00
3096;BME280;1558;42.700;23.360;2023-05-18T00:34:15;94820.38;;;11.38;100.00
3096;BME280;1558;42.700;23.360;2023-05-18T00:36:43;94833.88;;;11.38;100.00
3096;BME280;1558;42.700;23.360;2023-05-18T00:39:11;94832.66;;;11.35;100.00
3096;BME280;1558;42.700;23.360;2023-05-18T00:41:39;94834.50;;;11.31;100.00
3096;BME280;1558;42.700;23.360;2023-05-18T00:44:08;94836.06;;;11.32;100.00
3096;BME280;1558;42.700;23.360;2023-05-18T00:46:37;94824.13;;;11.33;100.00
3096;BME280;1558;42.700;23.360;2023-05-18T00:49:05;94834.22;;;11.36;100.00
3096;BME280;1558;42.700;23.360;2023-05-18T00:51:34;94829.28;;;11.38;100.00
3096;BME280;1558;42.700;23.360;2023-05-18T00:54:02;94819.78;;;11.44;100.00
3096;BME280;1558;42.700;23.360;2023-05-18T00:56:31;94812.19;;;11.50;100.00
3096;BME280;1558;42.700;23.360;2023-05-18T00:59:01;94819.50;;;11.49;100.00
3096;BME280;1558;42.700;23.360;2023-05-18T01:01:30;94819.94;;;11.51;100.00
3096;BME280;1558;42.700;23.360;2023-05-18T01:04:02;94816.56;;;11.54;100.00
3096;BME280;1558;42.700;23.360;2023-05-18T01:06:31;94820.56;;;11.61;100.00
3096;BME280;1558;42.700;23.360;2023-05-18T01:09:03;94818.28;;;11.63;100.00
3096;BME280;1558;42.700;23.360;2023-05-18T01:11:39;94817.84;;;11.61;100.00
3096;BME280;1558;42.700;23.360;2023-05-18T01:14:16;94819.06;;;11.63;100.00
3096;BME280;1558;42.700;23.360;2023-05-18T01:16:50;94820.81;;;11.55;100.00
3096;BME280;1558;42.700;23.360;2023-05-18T01:19:42;94831.09;;;11.50;100.00
3096;BME280;1558;42.700;23.360;2023-05-18T01:22:36;94829.88;;;11.47;100.00
3096;BME280;1558;42.700;23.360;2023-05-18T01:25:11;94825.59;;;11.46;100.00
3096;BME280;1558;42.700;23.360;2023-05-18T01:27:47;94826.41;;;11.47;100.00
3096;BME280;1558;42.700;23.360;2023-05-18T01:30:16;94836.41;;;11.46;100.00
3096;BME280;1558;42.700;23.360;2023-05-18T01:32:44;94837.19;;;11.47;100.00
3096;BME280;1558;42.700;23.360;2023-05-18T01:35:13;94827.50;;;11.46;100.00
3096;BME280;1558;42.700;23.360;2023-05-18T01:37:41;94828.56;;;11.41;100.00
3096;BME280;1558;42.700;23.360;2023-05-18T01:40:09;94833.97;;;11.41;100.00
3096;BME280;1558;42.700;23.360;2023-05-18T01:42:42;94824.31;;;11.40;100.00
3096;BME280;1558;42.700;23.360;2023-05-18T01:45:17;94825.16;;;11.44;100.00
3096;BME280;1558;42.700;23.360;2023-05-18T01:47:49;94817.94;;;11.48;100.00
3096;BME280;1558;42.700;23.360;2023-05-18T01:50:28;94827.19;;;11.47;100.00
3096;BME280;1558;42.700;23.360;2023-05-18T01:53:05;94831.38;;;11.45;100.00
3096;BME280;1558;42.700;23.360;2023-05-18T01:55:35;94836.41;;;11.46;100.00
3096;BME280;1558;42.700;23.360;2023-05-18T01:58:05;94834.84;;;11.45;100.00
3096;BME280;1558;42.700;23.360;2023-05-18T02:00:36;94835.72;;;11.49;100.00
3096;BME280;1558;42.700;23.360;2023-05-18T02:03:04;94834.25;;;11.52;100.00
3096;BME280;1558;42.700;23.360;2023-05-18T02:05:32;94841.56;;;11.51;100.00
3096;BME280;1558;42.700;23.360;2023-05-18T02:08:00;94832.66;;;11.51;100.00
3096;BME280;1558;42.700;23.360;2023-05-18T02:10:28;94834.13;;;11.48;100.00
3096;BME280;1558;42.700;23.360;2023-05-18T02:12:57;94841.13;;;11.49;100.00
3096;BME280;1558;42.700;23.360;2023-05-18T02:15:25;94842.34;;;11.52;100.00
3096;BME280;1558;42.700;23.360;2023-05-18T02:17:54;94834.56;;;11.50;100.00
3096;BME280;1558;42.700;23.360;2023-05-18T02:20:24;94838.16;;;11.54;100.00
3096;BME280;1558;42.700;23.360;2023-05-18T02:22:55;94835.91;;;11.56;100.00
3096;BME280;1558;42.700;23.360;2023-05-18T02:25:23;94833.25;;;11.60;100.00
3096;BME280;1558;42.700;23.360;2023-05-18T02:27:51;94841.91;;;11.66;100.00
3096;BME280;1558;42.700;23.360;2023-05-18T02:30:20;94836.84;;;11.64;100.00
3096;BME280;1558;42.700;23.360;2023-05-18T02:32:48;94837.66;;;11.65;100.00
3096;BME280;1558;42.700;23.360;2023-05-18T02:35:17;94831.34;;;11.61;100.00
3096;BME280;1558;42.700;23.360;2023-05-18T02:37:45;94839.88;;;11.63;100.00
3096;BME280;1558;42.700;23.360;2023-05-18T02:40:15;94831.28;;;11.57;100.00
3096;BME280;1558;42.700;23.360;2023-05-18T02:42:43;94840.59;;;11.60;100.00
3096;BME280;1558;42.700;23.360;2023-05-18T02:45:11;94849.03;;;11.58;100.00
3096;BME280;1558;42.700;23.360;2023-05-18T02:47:39;94848.28;;;11.57;100.00
3096;BME280;1558;42.700;23.360;2023-05-18T02:50:10;94854.53;;;11.62;100.00
3096;BME280;1558;42.700;23.360;2023-05-18T02:52:39;94860.75;;;11.62;100.00
3096;BME280;1558;42.700;23.360;2023-05-18T02:55:08;94856.09;;;11.63;100.00
3096;BME280;1558;42.700;23.360;2023-05-18T02:57:36;94862.41;;;11.67;100.00
3096;BME280;1558;42.700;23.360;2023-05-18T03:00:05;94867.47;;;11.68;100.00
3096;BME280;1558;42.700;23.360;2023-05-18T03:02:37;94872.50;;;11.70;100.00
3096;BME280;1558;42.700;23.360;2023-05-18T03:05:06;94873.66;;;11.69;100.00
3096;BME280;1558;42.700;23.360;2023-05-18T03:07:35;94888.72;;;11.70;100.00
3096;BME280;1558;42.700;23.360;2023-05-18T03:10:05;94893.22;;;11.66;100.00
3096;BME280;1558;42.700;23.360;2023-05-18T03:12:34;94890.16;;;11.67;100.00
3096;BME280;1558;42.700;23.360;2023-05-18T03:15:03;94891.09;;;11.71;100.00
3096;BME280;1558;42.700;23.360;2023-05-18T03:17:31;94895.09;;;11.77;100.00
3096;BME280;1558;42.700;23.360;2023-05-18T03:19:59;94895.19;;;11.81;100.00
3096;BME280;1558;42.700;23.360;2023-05-18T03:22:30;94900.59;;;11.81;100.00
3096;BME280;1558;42.700;23.360;2023-05-18T03:24:58;94909.13;;;11.83;100.00
3096;BME280;1558;42.700;23.360;2023-05-18T03:27:29;94912.97;;;11.82;100.00
3096;BME280;1558;42.700;23.360;2023-05-18T03:29:57;94909.94;;;11.83;100.00
3096;BME280;1558;42.700;23.360;2023-05-18T03:32:25;94915.75;;;11.85;100.00
3096;BME280;1558;42.700;23.360;2023-05-18T03:34:54;94913.84;;;11.86;100.00
3096;BME280;1558;42.700;23.360;2023-05-18T03:37:22;94908.88;;;11.88;100.00
3096;BME280;1558;42.700;23.360;2023-05-18T03:39:50;94906.88;;;11.85;100.00
3096;BME280;1558;42.700;23.360;2023-05-18T03:42:18;94914.63;;;11.86;100.00
3096;BME280;1558;42.700;23.360;2023-05-18T03:44:48;94917.66;;;11.85;100.00
3096;BME280;1558;42.700;23.360;2023-05-18T03:47:16;94909.50;;;11.81;100.00
3096;BME280;1558;42.700;23.360;2023-05-18T03:49:44;94912.88;;;11.78;100.00
3096;BME280;1558;42.700;23.360;2023-05-18T03:52:12;94926.81;;;11.80;100.00
3096;BME280;1558;42.700;23.360;2023-05-18T03:54:41;94928.47;;;11.85;100.00
3096;BME280;1558;42.700;23.360;2023-05-18T03:57:09;94929.34;;;11.89;100.00
3096;BME280;1558;42.700;23.360;2023-05-18T03:59:37;94932.94;;;11.93;100.00
3096;BME280;1558;42.700;23.360;2023-05-18T04:02:08;94929.53;;;11.96;100.00
3096;BME280;1558;42.700;23.360;2023-05-18T04:04:37;94930.69;;;11.95;100.00
3096;BME280;1558;42.700;23.360;2023-05-18T04:07:07;94936.50;;;11.97;100.00
3096;BME280;1558;42.700;23.360;2023-05-18T04:09:35;94936.50;;;11.97;100.00
3096;BME280;1558;42.700;23.360;2023-05-18T04:12:04;94935.38;;;11.98;100.00
3096;BME280;1558;42.700;23.360;2023-05-18T04:14:32;94935.66;;;11.93;100.00
3096;BME280;1558;42.700;23.360;2023-05-18T04:17:00;94940.25;;;11.92;100.00
3096;BME280;1558;42.700;23.360;2023-05-18T04:19:32;94945.75;;;11.96;100.00
3096;BME280;1558;42.700;23.360;2023-05-18T04:22:01;94950.97;;;11.89;100.00
3096;BME280;1558;42.700;23.360;2023-05-18T04:24:30;94950.28;;;11.92;100.00
3096;BME280;1558;42.700;23.360;2023-05-18T04:27:01;94939.91;;;11.94;100.00
3096;BME280;1558;42.700;23.360;2023-05-18T04:29:29;94941.91;;;11.97;100.00
3096;BME280;1558;42.700;23.360;2023-05-18T04:31:57;94942.78;;;12.01;100.00
3096;BME280;1558;42.700;23.360;2023-05-18T04:34:27;94940.34;;;11.96;100.00
3096;BME280;1558;42.700;23.360;2023-05-18T04:36:56;94950.47;;;11.99;100.00
3096;BME280;1558;42.700;23.360;2023-05-18T04:39:25;94949.16;;;12.08;100.00
3096;BME280;1558;42.700;23.360;2023-05-18T04:41:53;94948.47;;;12.11;100.00
3096;BME280;1558;42.700;23.360;2023-05-18T04:44:24;94950.13;;;12.00;100.00
3096;BME280;1558;42.700;23.360;2023-05-18T04:46:53;94954.91;;;12.07;100.00
3096;BME280;1558;42.700;23.360;2023-05-18T04:49:23;94962.06;;;12.15;100.00
3096;BME280;1558;42.700;23.360;2023-05-18T04:51:54;94956.66;;;12.15;100.00
3096;BME280;1558;42.700;23.360;2023-05-18T04:54:24;94959.81;;;12.17;100.00
3096;BME280;1558;42.700;23.360;2023-05-18T04:56:53;94960.25;;;12.19;100.00
3096;BME280;1558;42.700;23.360;2023-05-18T04:59:22;94974.19;;;12.21;100.00
3096;BME280;1558;42.700;23.360;2023-05-18T05:01:52;94977.84;;;12.13;100.00
3096;BME280;1558;42.700;23.360;2023-05-18T05:04:21;94982.38;;;12.09;100.00
3096;BME280;1558;42.700;23.360;2023-05-18T05:06:49;94991.03;;;12.14;100.00
3096;BME280;1558;42.700;23.360;2023-05-18T05:09:17;94983.94;;;12.10;100.00
3096;BME280;1558;42.700;23.360;2023-05-18T05:11:46;94988.59;;;12.09;100.00
3096;BME280;1558;42.700;23.360;2023-05-18T05:14:15;94996.25;;;12.07;100.00
3096;BME280;1558;42.700;23.360;2023-05-18T05:16:43;94996.59;;;12.06;100.00
3096;BME280;1558;42.700;23.360;2023-05-18T05:19:11;94993.19;;;12.09;100.00
3096;BME280;1558;42.700;23.360;2023-05-18T05:21:39;94998.16;;;12.07;100.00
3096;BME280;1558;42.700;23.360;2023-05-18T05:24:07;95006.09;;;12.00;100.00
3096;BME280;1558;42.700;23.360;2023-05-18T05:26:35;94997.44;;;11.94;100.00
3096;BME280;1558;42.700;23.360;2023-05-18T05:29:05;95007.41;;;11.90;100.00
3096;BME280;1558;42.700;23.360;2023-05-18T05:31:33;95003.09;;;11.89;100.00
3096;BME280;1558;42.700;23.360;2023-05-18T05:34:01;95011.22;;;11.89;100.00
3096;BME280;1558;42.700;23.360;2023-05-18T05:36:29;95017.50;;;11.93;100.00
3096;BME280;1558;42.700;23.360;2023-05-18T05:38:59;95014.47;;;11.95;100.00
3096;BME280;1558;42.700;23.360;2023-05-18T05:41:27;95012.97;;;11.97;100.00
3096;BME280;1558;42.700;23.360;2023-05-18T05:43:58;95011.50;;;12.00;100.00
3096;BME280;1558;42.700;23.360;2023-05-18T05:46:27;95017.25;;;11.98;100.00
3096;BME280;1558;42.700;23.360;2023-05-18T05:48:55;95017.16;;;11.95;100.00
3096;BME280;1558;42.700;23.360;2023-05-18T05:51:23;95017.41;;;11.90;100.00
3096;BME280;1558;42.700;23.360;2023-05-18T05:53:51;95020.19;;;11.93;100.00
3096;BME280;1558;42.700;23.360;2023-05-18T05:56:19;95026.06;;;11.95;100.00
3096;BME280;1558;42.700;23.360;2023-05-18T05:58:48;95017.59;;;11.97;100.00
3096;BME280;1558;42.700;23.360;2023-05-18T06:01:17;95024.59;;;11.98;100.00
3096;BME280;1558;42.700;23.360;2023-05-18T06:03:46;95020.72;;;11.99;100.00
3096;BME280;1558;42.700;23.360;2023-05-18T06:06:15;95026.50;;;11.97;100.00
3096;BME280;1558;42.700;23.360;2023-05-18T06:08:43;95027.72;;;12.00;100.00
3096;BME280;1558;42.700;23.360;2023-05-18T06:11:11;95026.25;;;12.02;100.00
3096;BME280;1558;42.700;23.360;2023-05-18T06:13:39;95020.84;;;12.02;100.00
3096;BME280;1558;42.700;23.360;2023-05-18T06:16:07;95027.28;;;11.98;100.00
3096;BME280;1558;42.700;23.360;2023-05-18T06:18:35;95031.13;;;11.97;100.00
3096;BME280;1558;42.700;23.360;2023-05-18T06:21:05;95040.00;;;11.97;100.00
3096;BME280;1558;42.700;23.360;2023-05-18T06:23:33;95031.53;;;11.99;100.00
3096;BME280;1558;42.700;23.360;2023-05-18T06:26:01;95032.41;;;12.03;100.00
3096;BME280;1558;42.700;23.360;2023-05-18T06:28:29;95042.66;;;12.09;100.00
3096;BME280;1558;42.700;23.360;2023-05-18T06:30:57;95044.75;;;12.16;100.00
3096;BME280;1558;42.700;23.360;2023-05-18T06:33:26;95041.09;;;12.24;100.00
3096;BME280;1558;42.700;23.360;2023-05-18T06:35:54;95040.75;;;12.26;100.00
3096;BME280;1558;42.700;23.360;2023-05-18T06:38:24;95046.41;;;12.36;100.00
3096;BME280;1558;42.700;23.360;2023-05-18T06:40:52;95053.50;;;12.41;100.00
3096;BME280;1558;42.700;23.360;2023-05-18T06:43:20;95054.19;;;12.53;100.00
3096;BME280;1558;42.700;23.360;2023-05-18T06:45:51;95044.41;;;12.64;100.00
3096;BME280;1558;42.700;23.360;2023-05-18T06:48:19;95052.78;;;12.75;100.00
3096;BME280;1558;42.700;23.360;2023-05-18T06:50:48;95049.63;;;12.73;100.00
3096;BME280;1558;42.700;23.360;2023-05-18T06:53:16;95064.81;;;12.77;100.00
3096;BME280;1558;42.700;23.360;2023-05-18T06:55:45;95067.53;;;12.77;100.00
3096;BME280;1558;42.700;23.360;2023-05-18T06:58:13;95071.97;;;12.70;100.00
3096;BME280;1558;42.700;23.360;2023-05-18T07:00:41;95075.91;;;12.72;100.00
3096;BME280;1558;42.700;23.360;2023-05-18T07:03:09;95079.94;;;12.63;100.00
3096;BME280;1558;42.700;23.360;2023-05-18T07:05:38;95081.78;;;12.59;100.00
3096;BME280;1558;42.700;23.360;2023-05-18T07:08:07;95072.50;;;12.44;100.00
3096;BME280;1558;42.700;23.360;2023-05-18T07:10:35;95087.63;;;12.45;100.00
3096;BME280;1558;42.700;23.360;2023-05-18T07:13:05;95095.69;;;12.30;100.00
3096;BME280;1558;42.700;23.360;2023-05-18T07:15:33;95092.66;;;12.31;100.00
3096;BME280;1558;42.700;23.360;2023-05-18T07:18:02;95087.91;;;12.12;100.00
3096;BME280;1558;42.700;23.360;2023-05-18T07:20:30;95100.56;;;11.81;100.00
3096;BME280;1558;42.700;23.360;2023-05-18T07:22:59;95102.13;;;11.82;100.00
3096;BME280;1558;42.700;23.360;2023-05-18T07:25:27;95106.63;;;11.78;100.00
3096;BME280;1558;42.700;23.360;2023-05-18T07:27:56;95107.88;;;11.80;100.00
3096;BME280;1558;42.700;23.360;2023-05-18T07:30:25;95109.00;;;11.79;100.00
3096;BME280;1558;42.700;23.360;2023-05-18T07:32:53;95108.63;;;11.93;100.00
3096;BME280;1558;42.700;23.360;2023-05-18T07:35:22;95113.31;;;11.96;100.00
3096;BME280;1558;42.700;23.360;2023-05-18T07:37:52;95111.41;;;11.96;100.00
3096;BME280;1558;42.700;23.360;2023-05-18T07:40:20;95121.09;;;11.97;100.00
3096;BME280;1558;42.700;23.360;2023-05-18T07:42:49;95122.69;;;11.86;100.00
3096;BME280;1558;42.700;23.360;2023-05-18T07:45:17;95121.50;;;11.84;100.00
3096;BME280;1558;42.700;23.360;2023-05-18T07:47:46;95130.06;;;11.74;100.00
3096;BME280;1558;42.700;23.360;2023-05-18T07:50:14;95133.66;;;11.78;100.00
3096;BME280;1558;42.700;23.360;2023-05-18T07:52:42;95135.44;;;11.86;100.00
3096;BME280;1558;42.700;23.360;2023-05-18T07:55:10;95136.63;;;12.00;100.00
3096;BME280;1558;42.700;23.360;2023-05-18T07:57:39;95139.94;;;12.21;100.00
3096;BME280;1558;42.700;23.360;2023-05-18T08:00:09;95137.72;;;12.11;100.00
3096;BME280;1558;42.700;23.360;2023-05-18T08:02:37;95144.47;;;12.05;100.00
3096;BME280;1558;42.700;23.360;2023-05-18T08:05:08;95143.59;;;12.01;100.00
3096;BME280;1558;42.700;23.360;2023-05-18T08:07:36;95144.25;;;11.71;100.00
3096;BME280;1558;42.700;23.360;2023-05-18T08:10:05;95151.28;;;11.47;100.00
3096;BME280;1558;42.700;23.360;2023-05-18T08:12:33;95156.25;;;11.33;100.00
3096;BME280;1558;42.700;23.360;2023-05-18T08:15:05;95157.47;;;11.48;100.00
3096;BME280;1558;42.700;23.360;2023-05-18T08:17:33;95160.47;;;11.58;100.00
3096;BME280;1558;42.700;23.360;2023-05-18T08:20:02;95158.34;;;11.52;100.00
3096;BME280;1558;42.700;23.360;2023-05-18T08:22:33;95169.94;;;11.52;100.00
3096;BME280;1558;42.700;23.360;2023-05-18T08:25:01;95173.38;;;11.65;100.00
3096;BME280;1558;42.700;23.360;2023-05-18T08:27:29;95181.38;;;11.86;100.00
3096;BME280;1558;42.700;23.360;2023-05-18T08:29:58;95177.34;;;11.80;100.00
3096;BME280;1558;42.700;23.360;2023-05-18T08:32:26;95180.25;;;11.87;100.00
3096;BME280;1558;42.700;23.360;2023-05-18T08:34:54;95179.22;;;11.91;100.00
3096;BME280;1558;42.700;23.360;2023-05-18T08:37:22;95185.06;;;11.93;100.00
3096;BME280;1558;42.700;23.360;2023-05-18T08:39:56;95190.53;;;11.69;100.00
3096;BME280;1558;42.700;23.360;2023-05-18T08:42:29;95201.56;;;11.64;100.00
3096;BME280;1558;42.700;23.360;2023-05-18T08:45:21;95205.97;;;11.69;100.00
3096;BME280;1558;42.700;23.360;2023-05-18T08:47:53;95193.13;;;11.53;100.00
3096;BME280;1558;42.700;23.360;2023-05-18T08:50:25;95200.47;;;11.41;100.00
3096;BME280;1558;42.700;23.360;2023-05-18T08:52:54;95209.09;;;11.22;100.00
3096;BME280;1558;42.700;23.360;2023-05-18T08:55:24;95202.81;;;11.18;100.00
3096;BME280;1558;42.700;23.360;2023-05-18T08:57:54;95218.13;;;11.26;100.00
3096;BME280;1558;42.700;23.360;2023-05-18T09:00:25;95216.75;;;11.20;100.00
3096;BME280;1558;42.700;23.360;2023-05-18T09:02:54;95213.81;;;11.13;100.00
3096;BME280;1558;42.700;23.360;2023-05-18T09:05:22;95215.63;;;11.21;100.00
3096;BME280;1558;42.700;23.360;2023-05-18T09:07:51;95220.13;;;11.29;100.00
3096;BME280;1558;42.700;23.360;2023-05-18T09:10:20;95215.53;;;11.30;100.00
3096;BME280;1558;42.700;23.360;2023-05-18T09:12:53;95222.38;;;11.39;100.00
3096;BME280;1558;42.700;23.360;2023-05-18T09:15:23;95228.34;;;11.33;100.00
3096;BME280;1558;42.700;23.360;2023-05-18T09:17:52;95225.53;;;11.29;100.00
3096;BME280;1558;42.700;23.360;2023-05-18T09:20:21;95228.34;;;11.45;100.00
3096;BME280;1558;42.700;23.360;2023-05-18T09:22:52;95226.78;;;11.68;100.00
3096;BME280;1558;42.700;23.360;2023-05-18T09:25:20;95239.41;;;11.76;100.00
3096;BME280;1558;42.700;23.360;2023-05-18T09:27:50;95240.72;;;11.94;100.00
3096;BME280;1558;42.700;23.360;2023-05-18T09:30:20;95234.03;;;12.04;100.00
3096;BME280;1558;42.700;23.360;2023-05-18T09:32:48;95238.56;;;12.00;100.00
3096;BME280;1558;42.700;23.360;2023-05-18T09:35:16;95207.53;;;11.70;100.00
3096;BME280;1558;42.700;23.360;2023-05-18T09:37:45;95236.13;;;11.83;100.00
3096;BME280;1558;42.700;23.360;2023-05-18T09:40:13;95243.75;;;11.93;100.00
3096;BME280;1558;42.700;23.360;2023-05-18T09:42:43;95245.53;;;12.01;100.00
3096;BME280;1558;42.700;23.360;2023-05-18T09:45:16;95229.53;;;12.08;100.00
3096;BME280;1558;42.700;23.360;2023-05-18T09:47:48;95250.66;;;12.30;100.00
3096;BME280;1558;42.700;23.360;2023-05-18T09:50:17;95251.28;;;12.39;100.00
3096;BME280;1558;42.700;23.360;2023-05-18T09:52:46;95236.19;;;12.38;100.00
3096;BME280;1558;42.700;23.360;2023-05-18T09:55:15;95256.41;;;12.56;100.00
3096;BME280;1558;42.700;23.360;2023-05-18T09:57:44;95252.00;;;12.64;100.00
3096;BME280;1558;42.700;23.360;2023-05-18T10:00:14;95255.16;;;12.81;100.00
3096;BME280;1558;42.700;23.360;2023-05-18T10:02:44;95242.22;;;12.75;100.00
3096;BME280;1558;42.700;23.360;2023-05-18T10:05:20;95252.81;;;12.96;100.00
3096;BME280;1558;42.700;23.360;2023-05-18T10:07:50;95261.09;;;13.15;100.00
3096;BME280;1558;42.700;23.360;2023-05-18T10:10:19;95262.41;;;13.21;100.00
3096;BME280;1558;42.700;23.360;2023-05-18T10:12:49;95272.22;;;13.10;100.00
3096;BME280;1558;42.700;23.360;2023-05-18T10:15:20;95257.44;;;13.07;100.00
3096;BME280;1558;42.700;23.360;2023-05-18T10:17:50;95262.84;;;13.23;100.00
3096;BME280;1558;42.700;23.360;2023-05-18T10:20:23;95263.22;;;13.21;100.00
3096;BME280;1558;42.700;23.360;2023-05-18T10:22:54;95264.25;;;13.32;100.00
3096;BME280;1558;42.700;23.360;2023-05-18T10:25:25;95271.50;;;13.44;100.00
3096;BME280;1558;42.700;23.360;2023-05-18T10:27:55;95266.44;;;13.42;100.00
3096;BME280;1558;42.700;23.360;2023-05-18T10:30:25;95276.16;;;13.59;100.00
3096;BME280;1558;42.700;23.360;2023-05-18T10:32:54;95275.25;;;13.55;100.00
3096;BME280;1558;42.700;23.360;2023-05-18T10:35:27;95262.94;;;13.42;100.00
3096;BME280;1558;42.700;23.360;2023-05-18T10:37:56;95284.53;;;13.54;100.00
3096;BME280;1558;42.700;23.360;2023-05-18T10:40:27;95293.44;;;13.70;100.00
3096;BME280;1558;42.700;23.360;2023-05-18T10:42:56;95257.44;;;13.54;100.00
3096;BME280;1558;42.700;23.360;2023-05-18T10:45:25;95290.09;;;13.77;100.00
3096;BME280;1558;42.700;23.360;2023-05-18T10:47:53;95292.13;;;13.80;100.00
3096;BME280;1558;42.700;23.360;2023-05-18T10:50:25;95298.78;;;13.82;100.00
3096;BME280;1558;42.700;23.360;2023-05-18T10:52:55;95300.44;;;13.87;100.00
3096;BME280;1558;42.700;23.360;2023-05-18T10:55:25;95311.00;;;13.92;100.00
3096;BME280;1558;42.700;23.360;2023-05-18T10:58:00;95253.84;;;13.66;100.00
3096;BME280;1558;42.700;23.360;2023-05-18T11:00:33;95301.28;;;14.06;100.00
3096;BME280;1558;42.700;23.360;2023-05-18T11:03:03;95300.84;;;14.04;100.00
3096;BME280;1558;42.700;23.360;2023-05-18T11:05:36;95311.75;;;14.08;100.00
3096;BME280;1558;42.700;23.360;2023-05-18T11:08:06;95299.38;;;13.91;100.00
3096;BME280;1558;42.700;23.360;2023-05-18T11:10:37;95313.63;;;14.04;100.00
3096;BME280;1558;42.700;23.360;2023-05-18T11:13:06;95319.63;;;14.13;100.00
3096;BME280;1558;42.700;23.360;2023-05-18T11:16:03;95320.84;;;14.15;100.00
3096;BME280;1558;42.700;23.360;2023-05-18T11:18:38;95326.16;;;13.93;100.00
3096;BME280;1558;42.700;23.360;2023-05-18T11:21:30;95304.28;;;13.70;100.00
3096;BME280;1558;42.700;23.360;2023-05-18T11:24:21;95333.16;;;13.78;100.00
3096;BME280;1558;42.700;23.360;2023-05-18T11:26:51;95330.63;;;13.85;100.00
3096;BME280;1558;42.700;23.360;2023-05-18T11:29:22;95311.19;;;13.68;100.00
3096;BME280;1558;42.700;23.360;2023-05-18T11:31:52;95331.59;;;13.62;100.00
3096;BME280;1558;42.700;23.360;2023-05-18T11:34:34;95355.88;;;13.42;100.00
3096;BME280;1558;42.700;23.360;2023-05-18T11:37:07;95351.06;;;13.36;100.00
3096;BME280;1558;42.700;23.360;2023-05-18T11:39:36;95338.38;;;13.40;100.00
3096;BME280;1558;42.700;23.360;2023-05-18T11:42:17;95332.16;;;13.24;100.00
3096;BME280;1558;42.700;23.360;2023-05-18T11:44:51;95337.94;;;13.38;100.00
3096;BME280;1558;42.700;23.360;2023-05-18T11:47:19;95354.19;;;13.38;100.00
3096;BME280;1558;42.700;23.360;2023-05-18T11:49:48;95344.31;;;13.30;100.00
3096;BME280;1558;42.700;23.360;2023-05-18T11:52:20;95355.88;;;13.42;100.00
3096;BME280;1558;42.700;23.360;2023-05-18T11:54:50;95350.94;;;13.32;100.00
3096;BME280;1558;42.700;23.360;2023-05-18T11:57:23;95354.84;;;13.19;100.00
3096;BME280;1558;42.700;23.360;2023-05-18T11:59:57;95345.22;;;13.06;100.00
3096;BME280;1558;42.700;23.360;2023-05-18T12:02:26;95344.59;;;13.13;100.00
3096;BME280;1558;42.700;23.360;2023-05-18T12:04:56;95359.63;;;13.10;100.00
3096;BME280;1558;42.700;23.360;2023-05-18T12:07:28;95353.34;;;13.06;100.00
3096;BME280;1558;42.700;23.360;2023-05-18T12:09:58;95358.78;;;13.22;100.00
3096;BME280;1558;42.700;23.360;2023-05-18T12:12:27;95357.41;;;13.28;100.00
3096;BME280;1558;42.700;23.360;2023-05-18T12:14:56;95335.59;;;13.09;100.00
3096;BME280;1558;42.700;23.360;2023-05-18T12:17:36;95375.81;;;13.22;100.00
3096;BME280;1558;42.700;23.360;2023-05-18T12:20:06;95368.94;;;13.25;100.00
3096;BME280;1558;42.700;23.360;2023-05-18T12:22:36;95364.19;;;13.22;100.00
3096;BME280;1558;42.700;23.360;2023-05-18T12:25:05;95379.94;;;13.04;100.00
3096;BME280;1558;42.700;23.360;2023-05-18T12:27:36;95377.56;;;13.03;100.00
3096;BME280;1558;42.700;23.360;2023-05-18T12:30:08;95367.66;;;13.07;100.00
3096;BME280;1558;42.700;23.360;2023-05-18T12:32:37;95379.28;;;13.07;100.00
3096;BME280;1558;42.700;23.360;2023-05-18T12:35:06;95376.44;;;13.04;100.00
3096;BME280;1558;42.700;23.360;2023-05-18T12:37:42;95380.06;;;13.08;100.00
3096;BME280;1558;42.700;23.360;2023-05-18T12:40:14;95381.41;;;13.14;100.00
3096;BME280;1558;42.700;23.360;2023-05-18T12:42:52;95386.38;;;13.12;100.00
3096;BME280;1558;42.700;23.360;2023-05-18T12:45:25;95362.72;;;12.97;100.00
3096;BME280;1558;42.700;23.360;2023-05-18T12:47:53;95376.31;;;13.12;100.00
3096;BME280;1558;42.700;23.360;2023-05-18T12:50:23;95352.88;;;13.04;100.00
3096;BME280;1558;42.700;23.360;2023-05-18T12:52:55;95382.47;;;13.25;100.00
3096;BME280;1558;42.700;23.360;2023-05-18T12:55:23;95386.41;;;13.27;100.00
3096;BME280;1558;42.700;23.360;2023-05-18T12:58:00;95377.94;;;13.29;100.00
3096;BME280;1558;42.700;23.360;2023-05-18T13:00:32;95376.81;;;13.30;100.00
3096;BME280;1558;42.700;23.360;2023-05-18T13:03:06;95388.00;;;13.28;100.00
3096;BME280;1558;42.700;23.360;2023-05-18T13:05:40;95387.44;;;13.23;100.00
3096;BME280;1558;42.700;23.360;2023-05-18T13:08:14;95387.66;;;13.30;100.00
3096;BME280;1558;42.700;23.360;2023-05-18T13:10:45;95389.63;;;13.17;100.00
3096;BME280;1558;42.700;23.360;2023-05-18T13:13:27;95383.50;;;13.20;100.00
3096;BME280;1558;42.700;23.360;2023-05-18T13:15:55;95383.16;;;13.22;100.00